DPV1018 SBRJ-SBBR
Flight info
| Callsign | DPV1018 |
|---|---|
| Flight time | 1h 23m |
| Altitude | 36000 |
| Route | MUDKA UM409 ISIPI |
| Aircraft | A319/M-SDE3FGHIRWY/LB1 |
Departure
| Time | 2026-05-06 22:30 |
|---|---|
| Airport | Santos Dumont Airport (SBRJ) |
Arrival
| Time | 2026-05-06 23:53 |
|---|---|
| Airport | Presidente Juscelino Kubitschek International Airport (SBBR) |
| Time | Latitude | Longitude | Altitude | Speed | Heading |
|---|---|---|---|---|---|
| 2026-05-06 22:13 | -22.90703 | -43.16629 | 27 ft | 0 kts | 266° |
| 2026-05-06 22:24 | -22.90702 | -43.16618 | 27 ft | 2 kts | 265° |
| 2026-05-06 22:24 | -22.90701 | -43.16601 | 27 ft | 2 kts | 266° |
| 2026-05-06 22:25 | -22.90700 | -43.16585 | 27 ft | 2 kts | 275° |
| 2026-05-06 22:25 | -22.90705 | -43.16569 | 26 ft | 2 kts | 305° |
| 2026-05-06 22:25 | -22.90716 | -43.16558 | 26 ft | 2 kts | 331° |
| 2026-05-06 22:25 | -22.90729 | -43.16553 | 26 ft | 0 kts | 354° |
| 2026-05-06 22:26 | -22.90735 | -43.16553 | 26 ft | 1 kts | 358° |
| 2026-05-06 22:26 | -22.90737 | -43.16553 | 26 ft | 0 kts | 358° |
| 2026-05-06 22:27 | -22.90734 | -43.16553 | 26 ft | 1 kts | 358° |
| 2026-05-06 22:27 | -22.90713 | -43.16553 | 26 ft | 4 kts | 358° |
| 2026-05-06 22:28 | -22.90670 | -43.16556 | 26 ft | 7 kts | 356° |
| 2026-05-06 22:28 | -22.90605 | -43.16560 | 26 ft | 10 kts | 356° |
| 2026-05-06 22:28 | -22.90519 | -43.16563 | 26 ft | 13 kts | 12° |
| 2026-05-06 22:28 | -22.90488 | -43.16490 | 25 ft | 10 kts | 86° |
| 2026-05-06 22:29 | -22.90480 | -43.16399 | 24 ft | 14 kts | 85° |
| 2026-05-06 22:29 | -22.90476 | -43.16325 | 22 ft | 6 kts | 166° |
| 2026-05-06 22:29 | -22.90532 | -43.16322 | 22 ft | 21 kts | 177° |
| 2026-05-06 22:29 | -22.90978 | -43.16294 | 22 ft | 102 kts | 176° |
| 2026-05-06 22:30 | -22.91873 | -43.16229 | 211 ft | 142 kts | 173° |
| 2026-05-06 22:30 | -22.92774 | -43.15892 | 853 ft | 138 kts | 144° |
| 2026-05-06 22:30 | -22.93494 | -43.15192 | 1436 ft | 143 kts | 131° |
| 2026-05-06 22:30 | -22.94196 | -43.14404 | 2019 ft | 149 kts | 129° |
| 2026-05-06 22:31 | -22.94939 | -43.13548 | 2434 ft | 166 kts | 133° |
| 2026-05-06 22:31 | -22.95851 | -43.12655 | 2892 ft | 183 kts | 136° |
| 2026-05-06 22:31 | -22.96858 | -43.11712 | 3368 ft | 200 kts | 137° |
| 2026-05-06 22:31 | -22.97974 | -43.10673 | 3865 ft | 218 kts | 137° |
| 2026-05-06 22:32 | -22.99163 | -43.09563 | 4378 ft | 234 kts | 137° |
| 2026-05-06 22:32 | -23.00455 | -43.08351 | 4865 ft | 254 kts | 137° |
| 2026-05-06 22:32 | -23.01733 | -43.07013 | 5399 ft | 270 kts | 124° |
| 2026-05-06 22:32 | -23.02393 | -43.05124 | 6156 ft | 273 kts | 92° |
| 2026-05-06 22:33 | -23.02103 | -43.03115 | 7073 ft | 272 kts | 68° |
| 2026-05-06 22:33 | -23.01374 | -43.01233 | 7905 ft | 276 kts | 66° |
| 2026-05-06 22:33 | -23.00618 | -42.99317 | 8738 ft | 280 kts | 67° |
| 2026-05-06 22:33 | -22.99850 | -42.97340 | 9576 ft | 283 kts | 67° |
| 2026-05-06 22:34 | -22.99095 | -42.95370 | 10382 ft | 287 kts | 67° |
| 2026-05-06 22:34 | -22.98320 | -42.93338 | 10895 ft | 301 kts | 67° |
| 2026-05-06 22:34 | -22.97466 | -42.91152 | 11271 ft | 319 kts | 63° |
| 2026-05-06 22:34 | -22.96168 | -42.89138 | 11568 ft | 337 kts | 46° |
| 2026-05-06 22:35 | -22.94275 | -42.87564 | 11937 ft | 352 kts | 31° |
| 2026-05-06 22:35 | -22.92101 | -42.86249 | 12534 ft | 358 kts | 29° |
| 2026-05-06 22:35 | -22.89908 | -42.84960 | 13206 ft | 361 kts | 28° |
| 2026-05-06 22:35 | -22.87577 | -42.83949 | 13828 ft | 365 kts | 14° |
| 2026-05-06 22:36 | -22.85020 | -42.83611 | 14436 ft | 370 kts | 360° |
| 2026-05-06 22:36 | -22.82461 | -42.83896 | 15010 ft | 375 kts | 352° |
| 2026-05-06 22:36 | -22.79862 | -42.84340 | 15564 ft | 379 kts | 351° |
| 2026-05-06 22:36 | -22.77252 | -42.84796 | 16112 ft | 383 kts | 351° |
| 2026-05-06 22:37 | -22.74579 | -42.85232 | 16642 ft | 387 kts | 352° |
| 2026-05-06 22:37 | -22.71869 | -42.85657 | 17164 ft | 391 kts | 352° |
| 2026-05-06 22:37 | -22.69159 | -42.86091 | 17670 ft | 395 kts | 352° |
| 2026-05-06 22:37 | -22.66445 | -42.86540 | 18178 ft | 399 kts | 351° |
| 2026-05-06 22:38 | -22.63578 | -42.87018 | 18748 ft | 401 kts | 351° |
| 2026-05-06 22:38 | -22.60803 | -42.87480 | 19248 ft | 405 kts | 351° |
| 2026-05-06 22:38 | -22.57959 | -42.87953 | 19776 ft | 407 kts | 351° |
| 2026-05-06 22:38 | -22.55142 | -42.88421 | 20309 ft | 410 kts | 351° |
| 2026-05-06 22:39 | -22.52317 | -42.88890 | 20810 ft | 413 kts | 351° |
| 2026-05-06 22:39 | -22.49448 | -42.89366 | 21299 ft | 416 kts | 351° |
| 2026-05-06 22:39 | -22.46584 | -42.89842 | 21807 ft | 418 kts | 350° |
| 2026-05-06 22:39 | -22.43670 | -42.90328 | 22318 ft | 420 kts | 350° |
| 2026-05-06 22:40 | -22.40785 | -42.90805 | 22822 ft | 422 kts | 350° |
| 2026-05-06 22:40 | -22.37879 | -42.91288 | 23283 ft | 425 kts | 350° |
| 2026-05-06 22:40 | -22.34922 | -42.91781 | 23715 ft | 428 kts | 350° |
| 2026-05-06 22:40 | -22.31974 | -42.92270 | 24141 ft | 431 kts | 350° |
| 2026-05-06 22:41 | -22.25986 | -42.93261 | 24943 ft | 437 kts | 350° |
| 2026-05-06 22:41 | -22.22965 | -42.93760 | 25333 ft | 440 kts | 350° |
| 2026-05-06 22:41 | -22.19939 | -42.94274 | 25714 ft | 442 kts | 348° |
| 2026-05-06 22:42 | -22.16972 | -42.95246 | 26060 ft | 444 kts | 335° |
| 2026-05-06 22:42 | -22.14280 | -42.96905 | 26405 ft | 445 kts | 322° |
| 2026-05-06 22:42 | -22.11982 | -42.99115 | 26744 ft | 446 kts | 313° |
| 2026-05-06 22:42 | -22.09807 | -43.01537 | 27093 ft | 448 kts | 312° |
| 2026-05-06 22:43 | -22.07667 | -43.03964 | 27421 ft | 451 kts | 312° |
| 2026-05-06 22:43 | -22.05481 | -43.06433 | 27748 ft | 454 kts | 312° |
| 2026-05-06 22:43 | -22.03302 | -43.08881 | 28055 ft | 457 kts | 311° |
| 2026-05-06 22:43 | -22.01082 | -43.11366 | 28361 ft | 460 kts | 312° |
| 2026-05-06 22:44 | -21.98837 | -43.13866 | 28667 ft | 463 kts | 311° |
| 2026-05-06 22:44 | -21.96610 | -43.16341 | 28966 ft | 465 kts | 312° |
| 2026-05-06 22:44 | -21.94352 | -43.18850 | 29244 ft | 468 kts | 311° |
| 2026-05-06 22:44 | -21.92055 | -43.21401 | 29616 ft | 468 kts | 312° |
| 2026-05-06 22:45 | -21.89778 | -43.23922 | 30031 ft | 467 kts | 311° |
| 2026-05-06 22:45 | -21.87504 | -43.26429 | 30413 ft | 467 kts | 311° |
| 2026-05-06 22:45 | -21.85244 | -43.28915 | 30783 ft | 466 kts | 311° |
| 2026-05-06 22:45 | -21.82994 | -43.31396 | 31126 ft | 467 kts | 310° |
| 2026-05-06 22:46 | -21.80713 | -43.33921 | 31476 ft | 466 kts | 310° |
| 2026-05-06 22:46 | -21.78526 | -43.36342 | 31808 ft | 466 kts | 310° |
| 2026-05-06 22:46 | -21.76246 | -43.38782 | 32148 ft | 467 kts | 313° |
| 2026-05-06 22:46 | -21.73841 | -43.41160 | 32507 ft | 467 kts | 313° |
| 2026-05-06 22:47 | -21.71447 | -43.43507 | 32791 ft | 467 kts | 313° |
| 2026-05-06 22:47 | -21.69023 | -43.45879 | 33071 ft | 468 kts | 313° |
| 2026-05-06 22:47 | -21.66613 | -43.48247 | 33342 ft | 469 kts | 313° |
| 2026-05-06 22:47 | -21.64221 | -43.50594 | 33678 ft | 469 kts | 313° |
| 2026-05-06 22:48 | -21.61792 | -43.52971 | 34024 ft | 469 kts | 312° |
| 2026-05-06 22:48 | -21.59323 | -43.55256 | 34322 ft | 472 kts | 315° |
| 2026-05-06 22:48 | -21.56678 | -43.57438 | 34599 ft | 475 kts | 319° |
| 2026-05-06 22:48 | -21.53935 | -43.59436 | 34815 ft | 479 kts | 322° |
| 2026-05-06 22:49 | -21.51074 | -43.61279 | 35010 ft | 483 kts | 324° |
| 2026-05-06 22:49 | -21.48169 | -43.63074 | 35239 ft | 485 kts | 324° |
| 2026-05-06 22:49 | -21.45386 | -43.64785 | 35470 ft | 485 kts | 324° |
| 2026-05-06 22:49 | -21.42420 | -43.66620 | 35693 ft | 486 kts | 324° |
| 2026-05-06 22:50 | -21.39509 | -43.68437 | 35833 ft | 489 kts | 324° |
| 2026-05-06 22:50 | -21.36551 | -43.70277 | 35982 ft | 491 kts | 324° |
| 2026-05-06 22:50 | -21.33570 | -43.72126 | 36196 ft | 491 kts | 324° |
| 2026-05-06 22:51 | -21.27613 | -43.75814 | 36262 ft | 495 kts | 324° |
| 2026-05-06 22:51 | -21.21724 | -43.79576 | 36261 ft | 495 kts | 323° |
| 2026-05-06 22:52 | -21.15829 | -43.83444 | 36250 ft | 494 kts | 323° |
| 2026-05-06 22:52 | -21.09955 | -43.87283 | 36246 ft | 495 kts | 323° |
| 2026-05-06 22:53 | -21.04076 | -43.91111 | 36247 ft | 495 kts | 323° |
| 2026-05-06 22:53 | -20.98149 | -43.94969 | 36245 ft | 496 kts | 323° |
| 2026-05-06 22:54 | -20.92270 | -43.98786 | 36242 ft | 495 kts | 323° |
| 2026-05-06 22:54 | -20.86333 | -44.02629 | 36240 ft | 495 kts | 323° |
| 2026-05-06 22:55 | -20.80425 | -44.06448 | 36239 ft | 497 kts | 323° |
| 2026-05-06 22:55 | -20.74506 | -44.10290 | 36239 ft | 497 kts | 323° |
| 2026-05-06 22:56 | -20.68617 | -44.14142 | 36239 ft | 496 kts | 322° |
| 2026-05-06 22:56 | -20.62725 | -44.17982 | 36241 ft | 497 kts | 323° |
| 2026-05-06 22:57 | -20.56766 | -44.21809 | 36240 ft | 497 kts | 323° |
| 2026-05-06 22:57 | -20.50830 | -44.25619 | 36237 ft | 497 kts | 323° |
| 2026-05-06 22:58 | -20.44963 | -44.29388 | 36231 ft | 498 kts | 323° |
| 2026-05-06 22:58 | -20.39042 | -44.33190 | 36227 ft | 497 kts | 323° |
| 2026-05-06 22:59 | -20.33064 | -44.37032 | 36225 ft | 497 kts | 323° |
| 2026-05-06 22:59 | -20.27142 | -44.40841 | 36226 ft | 496 kts | 323° |
| 2026-05-06 23:00 | -20.21199 | -44.44664 | 36222 ft | 497 kts | 323° |
| 2026-05-06 23:00 | -20.15279 | -44.48465 | 36221 ft | 497 kts | 323° |
| 2026-05-06 23:01 | -20.09301 | -44.52291 | 36221 ft | 498 kts | 323° |
| 2026-05-06 23:01 | -20.03328 | -44.56110 | 36213 ft | 498 kts | 323° |
| 2026-05-06 23:02 | -19.97342 | -44.59937 | 36210 ft | 497 kts | 323° |
| 2026-05-06 23:02 | -19.91422 | -44.63723 | 36204 ft | 497 kts | 323° |
| 2026-05-06 23:03 | -19.85439 | -44.67548 | 36201 ft | 497 kts | 323° |
| 2026-05-06 23:03 | -19.79529 | -44.71328 | 36198 ft | 497 kts | 323° |
| 2026-05-06 23:04 | -19.73553 | -44.75143 | 36196 ft | 497 kts | 323° |
| 2026-05-06 23:04 | -19.67595 | -44.78943 | 36194 ft | 498 kts | 323° |
| 2026-05-06 23:05 | -19.61644 | -44.82733 | 36191 ft | 498 kts | 323° |
| 2026-05-06 23:05 | -19.55701 | -44.86515 | 36188 ft | 498 kts | 323° |
| 2026-05-06 23:06 | -19.49743 | -44.90300 | 36173 ft | 498 kts | 323° |
| 2026-05-06 23:06 | -19.43786 | -44.94076 | 36166 ft | 498 kts | 323° |
| 2026-05-06 23:07 | -19.37831 | -44.97850 | 36161 ft | 498 kts | 323° |
| 2026-05-06 23:07 | -19.31793 | -45.01677 | 36151 ft | 498 kts | 323° |
| 2026-05-06 23:08 | -19.25798 | -45.05476 | 36153 ft | 499 kts | 323° |
| 2026-05-06 23:08 | -19.19752 | -45.09303 | 36146 ft | 499 kts | 323° |
| 2026-05-06 23:09 | -19.13687 | -45.13136 | 36144 ft | 498 kts | 323° |
| 2026-05-06 23:09 | -19.07651 | -45.16948 | 36147 ft | 497 kts | 323° |
| 2026-05-06 23:10 | -19.01711 | -45.20699 | 36140 ft | 498 kts | 323° |
| 2026-05-06 23:10 | -18.95747 | -45.24459 | 36141 ft | 498 kts | 323° |
| 2026-05-06 23:11 | -18.89808 | -45.28201 | 36144 ft | 497 kts | 323° |
| 2026-05-06 23:11 | -18.83831 | -45.31945 | 36145 ft | 497 kts | 323° |
| 2026-05-06 23:12 | -18.77883 | -45.35673 | 36148 ft | 496 kts | 323° |
| 2026-05-06 23:12 | -18.71938 | -45.39409 | 36152 ft | 496 kts | 323° |
| 2026-05-06 23:13 | -18.65987 | -45.43150 | 36151 ft | 496 kts | 323° |
| 2026-05-06 23:13 | -18.60035 | -45.46886 | 36150 ft | 496 kts | 323° |
| 2026-05-06 23:14 | -18.54096 | -45.50616 | 36148 ft | 496 kts | 323° |
| 2026-05-06 23:14 | -18.48167 | -45.54337 | 36155 ft | 495 kts | 323° |
| 2026-05-06 23:15 | -18.42343 | -45.58198 | 36156 ft | 490 kts | 318° |
| 2026-05-06 23:15 | -18.36849 | -45.62445 | 36161 ft | 490 kts | 317° |
| 2026-05-06 23:16 | -18.31386 | -45.66737 | 36161 ft | 489 kts | 317° |
| 2026-05-06 23:16 | -18.25908 | -45.71051 | 36162 ft | 490 kts | 317° |
| 2026-05-06 23:17 | -18.20455 | -45.75316 | 36165 ft | 489 kts | 317° |
| 2026-05-06 23:17 | -18.15000 | -45.79572 | 36172 ft | 490 kts | 317° |
| 2026-05-06 23:18 | -18.09489 | -45.83861 | 36171 ft | 489 kts | 317° |
| 2026-05-06 23:18 | -18.04024 | -45.88114 | 36167 ft | 489 kts | 317° |
| 2026-05-06 23:19 | -17.98552 | -45.92370 | 36174 ft | 490 kts | 317° |
| 2026-05-06 23:19 | -17.93051 | -45.96640 | 36165 ft | 489 kts | 317° |
| 2026-05-06 23:20 | -17.87566 | -46.00889 | 36159 ft | 489 kts | 317° |
| 2026-05-06 23:20 | -17.82058 | -46.05134 | 36155 ft | 489 kts | 317° |
| 2026-05-06 23:21 | -17.76580 | -46.09365 | 36141 ft | 488 kts | 317° |
| 2026-05-06 23:21 | -17.71093 | -46.13611 | 36138 ft | 488 kts | 317° |
| 2026-05-06 23:22 | -17.65611 | -46.17851 | 36131 ft | 487 kts | 317° |
| 2026-05-06 23:22 | -17.60137 | -46.22083 | 36129 ft | 488 kts | 317° |
| 2026-05-06 23:23 | -17.54682 | -46.26295 | 36130 ft | 486 kts | 317° |
| 2026-05-06 23:23 | -17.49163 | -46.30557 | 36129 ft | 486 kts | 317° |
| 2026-05-06 23:24 | -17.43633 | -46.34823 | 36123 ft | 486 kts | 317° |
| 2026-05-06 23:24 | -17.38100 | -46.39088 | 36125 ft | 485 kts | 317° |
| 2026-05-06 23:25 | -17.32434 | -46.43453 | 36125 ft | 485 kts | 317° |
| 2026-05-06 23:25 | -17.26828 | -46.47770 | 36122 ft | 484 kts | 317° |
| 2026-05-06 23:26 | -17.21331 | -46.52008 | 35795 ft | 485 kts | 318° |
| 2026-05-06 23:26 | -17.18577 | -46.54123 | 35966 ft | 486 kts | 317° |
| 2026-05-06 23:26 | -17.15814 | -46.56239 | 36117 ft | 490 kts | 317° |
| 2026-05-06 23:26 | -17.13069 | -46.58389 | 36500 ft | 490 kts | 314° |
| 2026-05-06 23:27 | -17.10439 | -46.60645 | 36383 ft | 484 kts | 312° |
| 2026-05-06 23:27 | -17.05296 | -46.65230 | 36244 ft | 481 kts | 312° |
| 2026-05-06 23:28 | -17.00228 | -46.69786 | 36166 ft | 480 kts | 312° |
| 2026-05-06 23:28 | -16.95117 | -46.74362 | 36120 ft | 481 kts | 312° |
| 2026-05-06 23:29 | -16.89991 | -46.78929 | 36137 ft | 482 kts | 312° |
| 2026-05-06 23:29 | -16.84810 | -46.83509 | 35906 ft | 485 kts | 313° |
| 2026-05-06 23:29 | -16.82189 | -46.85823 | 35459 ft | 483 kts | 312° |
| 2026-05-06 23:30 | -16.79546 | -46.88162 | 34734 ft | 485 kts | 312° |
| 2026-05-06 23:30 | -16.76912 | -46.90499 | 33922 ft | 488 kts | 313° |
| 2026-05-06 23:30 | -16.74353 | -46.92770 | 33128 ft | 491 kts | 313° |
| 2026-05-06 23:30 | -16.71748 | -46.95082 | 32313 ft | 494 kts | 313° |
| 2026-05-06 23:31 | -16.69085 | -46.97445 | 31292 ft | 496 kts | 313° |
| 2026-05-06 23:31 | -16.66412 | -46.99815 | 30207 ft | 500 kts | 313° |
| 2026-05-06 23:31 | -16.63722 | -47.02202 | 29074 ft | 504 kts | 314° |
| 2026-05-06 23:31 | -16.61012 | -47.04602 | 28170 ft | 502 kts | 314° |
| 2026-05-06 23:32 | -16.58307 | -47.06992 | 27512 ft | 492 kts | 314° |
| 2026-05-06 23:32 | -16.55632 | -47.09355 | 26920 ft | 481 kts | 315° |
| 2026-05-06 23:32 | -16.53081 | -47.11609 | 26384 ft | 471 kts | 315° |
| 2026-05-06 23:32 | -16.50601 | -47.13805 | 25890 ft | 466 kts | 315° |
| 2026-05-06 23:33 | -16.48125 | -47.15997 | 25462 ft | 463 kts | 315° |
| 2026-05-06 23:33 | -16.45660 | -47.18177 | 24995 ft | 459 kts | 315° |
| 2026-05-06 23:33 | -16.43232 | -47.20323 | 24515 ft | 455 kts | 316° |
| 2026-05-06 23:33 | -16.40787 | -47.22483 | 24011 ft | 451 kts | 316° |
| 2026-05-06 23:34 | -16.38376 | -47.24606 | 23497 ft | 447 kts | 317° |
| 2026-05-06 23:34 | -16.35961 | -47.26656 | 22981 ft | 444 kts | 318° |
| 2026-05-06 23:34 | -16.33536 | -47.28673 | 22456 ft | 440 kts | 319° |
| 2026-05-06 23:34 | -16.31151 | -47.30653 | 21934 ft | 436 kts | 319° |
| 2026-05-06 23:35 | -16.28784 | -47.32621 | 21416 ft | 431 kts | 319° |
| 2026-05-06 23:35 | -16.26429 | -47.34584 | 20906 ft | 427 kts | 319° |
| 2026-05-06 23:35 | -16.24173 | -47.36466 | 20417 ft | 423 kts | 319° |
| 2026-05-06 23:35 | -16.21888 | -47.38376 | 19922 ft | 419 kts | 319° |
| 2026-05-06 23:36 | -16.19626 | -47.40268 | 19432 ft | 415 kts | 320° |
| 2026-05-06 23:36 | -16.17382 | -47.42139 | 18940 ft | 412 kts | 320° |
| 2026-05-06 23:36 | -16.15177 | -47.43977 | 18452 ft | 408 kts | 320° |
| 2026-05-06 23:36 | -16.12937 | -47.45846 | 17953 ft | 404 kts | 320° |
| 2026-05-06 23:37 | -16.10722 | -47.47695 | 17457 ft | 401 kts | 320° |
| 2026-05-06 23:37 | -16.08533 | -47.49521 | 16967 ft | 398 kts | 320° |
| 2026-05-06 23:37 | -16.06406 | -47.51295 | 16489 ft | 395 kts | 321° |
| 2026-05-06 23:37 | -16.04271 | -47.53075 | 16006 ft | 392 kts | 321° |
| 2026-05-06 23:38 | -16.02142 | -47.54850 | 15520 ft | 389 kts | 321° |
| 2026-05-06 23:38 | -16.00018 | -47.56619 | 15029 ft | 387 kts | 321° |
| 2026-05-06 23:38 | -15.97905 | -47.58404 | 14525 ft | 384 kts | 318° |
| 2026-05-06 23:38 | -15.96288 | -47.60549 | 14017 ft | 379 kts | 296° |
| 2026-05-06 23:39 | -15.95562 | -47.63166 | 13513 ft | 375 kts | 274° |
| 2026-05-06 23:39 | -15.95630 | -47.65859 | 13043 ft | 369 kts | 265° |
| 2026-05-06 23:39 | -15.95842 | -47.68529 | 12568 ft | 365 kts | 265° |
| 2026-05-06 23:39 | -15.96048 | -47.71127 | 12110 ft | 362 kts | 265° |
| 2026-05-06 23:40 | -15.96243 | -47.73756 | 11652 ft | 359 kts | 266° |
| 2026-05-06 23:40 | -15.96421 | -47.76321 | 11200 ft | 355 kts | 266° |
| 2026-05-06 23:40 | -15.96590 | -47.78879 | 10770 ft | 351 kts | 266° |
| 2026-05-06 23:40 | -15.96750 | -47.81330 | 10643 ft | 335 kts | 266° |
| 2026-05-06 23:41 | -15.96901 | -47.83698 | 10544 ft | 320 kts | 266° |
| 2026-05-06 23:41 | -15.97043 | -47.85944 | 10458 ft | 305 kts | 266° |
| 2026-05-06 23:41 | -15.97181 | -47.88101 | 10384 ft | 291 kts | 267° |
| 2026-05-06 23:41 | -15.97309 | -47.90128 | 10322 ft | 278 kts | 267° |
| 2026-05-06 23:42 | -15.97434 | -47.92133 | 10265 ft | 264 kts | 267° |
| 2026-05-06 23:42 | -15.97551 | -47.93972 | 10222 ft | 251 kts | 267° |
| 2026-05-06 23:42 | -15.97665 | -47.95775 | 10220 ft | 249 kts | 267° |
| 2026-05-06 23:42 | -15.97780 | -47.97579 | 10194 ft | 250 kts | 267° |
| 2026-05-06 23:43 | -15.97896 | -47.99398 | 9827 ft | 254 kts | 266° |
| 2026-05-06 23:43 | -15.98016 | -48.01257 | 9472 ft | 256 kts | 266° |
| 2026-05-06 23:43 | -15.98133 | -48.03095 | 9127 ft | 258 kts | 266° |
| 2026-05-06 23:43 | -15.98252 | -48.04966 | 8777 ft | 258 kts | 266° |
| 2026-05-06 23:44 | -15.98372 | -48.06839 | 8430 ft | 259 kts | 266° |
| 2026-05-06 23:44 | -15.98486 | -48.08691 | 8092 ft | 258 kts | 266° |
| 2026-05-06 23:44 | -15.98604 | -48.10558 | 7757 ft | 258 kts | 266° |
| 2026-05-06 23:44 | -15.98723 | -48.12417 | 7424 ft | 258 kts | 266° |
| 2026-05-06 23:45 | -15.98838 | -48.14261 | 7092 ft | 257 kts | 266° |
| 2026-05-06 23:45 | -15.98947 | -48.16134 | 6745 ft | 256 kts | 269° |
| 2026-05-06 23:45 | -15.98551 | -48.17916 | 6340 ft | 255 kts | 304° |
| 2026-05-06 23:45 | -15.97270 | -48.19065 | 6076 ft | 243 kts | 343° |
| 2026-05-06 23:46 | -15.95643 | -48.19216 | 5888 ft | 228 kts | 9° |
| 2026-05-06 23:46 | -15.94084 | -48.18987 | 5669 ft | 222 kts | 17° |
| 2026-05-06 23:46 | -15.92842 | -48.18206 | 5563 ft | 202 kts | 56° |
| 2026-05-06 23:46 | -15.92191 | -48.16986 | 5606 ft | 187 kts | 66° |
| 2026-05-06 23:47 | -15.91647 | -48.15813 | 5593 ft | 171 kts | 65° |
| 2026-05-06 23:47 | -15.91131 | -48.14786 | 5553 ft | 154 kts | 64° |
| 2026-05-06 23:47 | -15.90608 | -48.13801 | 5555 ft | 151 kts | 63° |
| 2026-05-06 23:47 | -15.90079 | -48.12836 | 5561 ft | 150 kts | 63° |
| 2026-05-06 23:48 | -15.89635 | -48.11863 | 5562 ft | 149 kts | 71° |
| 2026-05-06 23:48 | -15.89332 | -48.10827 | 5565 ft | 148 kts | 78° |
| 2026-05-06 23:48 | -15.89148 | -48.09768 | 5586 ft | 148 kts | 83° |
| 2026-05-06 23:48 | -15.89028 | -48.08688 | 5575 ft | 148 kts | 85° |
| 2026-05-06 23:49 | -15.88941 | -48.07619 | 5574 ft | 148 kts | 86° |
| 2026-05-06 23:49 | -15.88868 | -48.06541 | 5571 ft | 148 kts | 87° |
| 2026-05-06 23:49 | -15.88798 | -48.05451 | 5571 ft | 148 kts | 87° |
| 2026-05-06 23:49 | -15.88731 | -48.04416 | 5381 ft | 137 kts | 87° |
| 2026-05-06 23:50 | -15.88670 | -48.03435 | 5210 ft | 135 kts | 87° |
| 2026-05-06 23:50 | -15.88547 | -48.01500 | 4877 ft | 134 kts | 87° |
| 2026-05-06 23:50 | -15.88486 | -48.00541 | 4714 ft | 134 kts | 88° |
| 2026-05-06 23:51 | -15.88424 | -47.99579 | 4543 ft | 133 kts | 88° |
| 2026-05-06 23:51 | -15.88362 | -47.98624 | 4369 ft | 132 kts | 89° |
| 2026-05-06 23:51 | -15.88299 | -47.97663 | 4197 ft | 132 kts | 89° |
| 2026-05-06 23:51 | -15.88238 | -47.96716 | 4030 ft | 131 kts | 89° |
| 2026-05-06 23:52 | -15.88178 | -47.95760 | 3853 ft | 131 kts | 89° |
| 2026-05-06 23:52 | -15.88116 | -47.94814 | 3696 ft | 131 kts | 89° |
| 2026-05-06 23:52 | -15.88057 | -47.93872 | 3554 ft | 130 kts | 90° |
| 2026-05-06 23:52 | -15.88004 | -47.92992 | 3500 ft | 105 kts | 87° |
| 2026-05-06 23:53 | -15.87964 | -47.92416 | 3474 ft | 55 kts | 85° |
| 2026-05-06 23:53 | -15.87942 | -47.92081 | 3462 ft | 41 kts | 85° |
| 2026-05-06 23:53 | -15.87893 | -47.91862 | 3458 ft | 26 kts | 70° |
| 2026-05-06 23:53 | -15.87823 | -47.91722 | 3459 ft | 14 kts | 54° |
| 2026-05-06 23:54 | -15.87800 | -47.91691 | 3459 ft | 4 kts | 53° |
| 2026-05-06 23:54 | -15.87776 | -47.91657 | 3459 ft | 6 kts | 55° |
| 2026-05-06 23:54 | -15.87744 | -47.91603 | 3458 ft | 10 kts | 63° |
| 2026-05-06 23:54 | -15.87684 | -47.91553 | 3459 ft | 11 kts | 5° |
| 2026-05-06 23:55 | -15.87626 | -47.91555 | 3465 ft | 7 kts | 356° |
| 2026-05-06 23:55 | -15.87574 | -47.91559 | 3470 ft | 8 kts | 356° |
| 2026-05-06 23:55 | -15.87494 | -47.91564 | 3477 ft | 15 kts | 356° |
| 2026-05-06 23:55 | -15.87345 | -47.91574 | 3477 ft | 24 kts | 354° |
| 2026-05-06 23:56 | -15.87190 | -47.91587 | 3483 ft | 19 kts | 356° |
| 2026-05-06 23:56 | -15.87070 | -47.91598 | 3486 ft | 12 kts | 334° |
| 2026-05-06 23:56 | -15.87052 | -47.91675 | 3488 ft | 11 kts | 264° |
| 2026-05-06 23:56 | -15.87059 | -47.91754 | 3490 ft | 10 kts | 268° |
| 2026-05-06 23:57 | -15.87071 | -47.91819 | 3491 ft | 8 kts | 213° |
| 2026-05-06 23:57 | -15.87117 | -47.91818 | 3490 ft | 4 kts | 175° |
| 2026-05-06 23:57 | -15.87123 | -47.91818 | 3490 ft | 0 kts | 176° |